Latest Weather Observations for Centre Island

IDD60801

Issued at 6:01 am CST Sunday 28 August 2016 (issued every 30 minutes, with the page automatically refreshed every 10 minutes)

About weather observations | Map of weather stations | Latest weather observations for NT | Other Formats
Station Details ID: 014703 Name: CENTRE ISLAND Lat: -15.74 Lon: 136.82 Height: 12.2 m
Data from the previous 72 hours. | See also: Recent months at Centre Island
Date/Time
CST
Temp
°C
App
Temp
°C
Dew
Point
°C
Rel
Hum
%
Delta-T
°C
Wind Press
QNH
hPa
Press
MSL
hPa
Rain since
9am
mm
Dir  Spd
km/h
Gust
km/h
Spd
kts
Gust
kts
28/06:00am 18.7 15.7 12.0 65 3.7 SSE 19 24 10 13 1016.6 1016.6 0.0
28/05:30am 19.0 15.3 11.6 62 4.1 SSE 22 26 12 14 1016.3 1016.3 0.0
28/05:00am 19.2 15.4 11.3 60 4.3 SSE 22 26 12 14 1016.0 1016.0 0.0
28/04:30am 19.0 15.7 11.6 62 4.1 SSE 20 26 11 14 1015.8 1015.8 0.0
28/04:00am 20.1 16.9 13.1 64 4.0 SSE 22 26 12 14 1015.8 1015.8 0.0
28/03:30am 19.7 18.5 14.1 70 3.2 SSE 13 19 7 10 1015.9 1015.9 0.0
28/03:00am 19.6 18.9 14.4 72 3.0 S 11 13 6 7 1015.9 1015.9 0.0
28/02:30am 19.9 19.6 14.5 71 3.1 S 9 13 5 7 1015.9 1015.9 0.0
28/02:00am 20.0 19.2 14.1 69 3.4 S 11 13 6 7 1015.9 1015.9 0.0
28/01:30am 20.8 20.4 15.1 70 3.4 SSE 11 13 6 7 1016.3 1016.3 0.0
28/01:00am 21.4 20.6 15.0 67 3.8 SE 13 15 7 8 1016.6 1016.6 0.0
28/12:30am 21.7 19.9 13.3 59 4.8 E 15 19 8 10 1016.8 1016.8 0.0
28/12:00am 21.6 19.9 13.5 60 4.7 ESE 15 19 8 10 1016.9 1016.9 0.0
 
Date/Time
CST
Temp
°C
App
Temp
°C
Dew
Point
°C
Rel
Hum
%
Delta-T
°C
Wind Press
QNH
hPa
Press
MSL
hPa
Rain since
9am
mm
Dir  Spd
km/h
Gust
km/h
Spd
kts
Gust
kts
27/11:30pm 21.7 19.5 13.3 59 4.8 ESE 17 22 9 12 1016.9 1016.9 0.0
27/11:00pm 21.7 19.0 13.6 60 4.7 E 20 24 11 13 1016.9 1016.9 0.0
27/10:30pm 21.5 19.1 13.7 61 4.5 E 19 22 10 12 1016.9 1016.9 0.0
27/10:00pm 21.6 19.1 13.5 60 4.7 E 19 24 10 13 1016.8 1016.8 0.0
27/09:30pm 21.5 18.9 13.2 59 4.7 E 19 22 10 12 1016.8 1016.8 0.0
27/09:00pm 21.5 18.5 12.6 57 5.0 ENE 20 24 11 13 1016.9 1016.9 0.0
27/08:30pm 21.6 18.6 12.5 56 5.1 ENE 20 24 11 13 1016.6 1016.6 0.0
27/08:00pm 21.6 18.5 12.2 55 5.3 ENE 20 26 11 14 1016.4 1016.4 0.0
27/07:30pm 21.8 17.9 10.9 50 6.0 ENE 22 28 12 15 1016.2 1016.2 0.0
27/07:00pm 21.9 17.9 10.4 48 6.3 ENE 22 26 12 14 1015.8 1015.8 0.0
27/06:30pm 22.1 18.1 10.3 47 6.4 ENE 22 28 12 15 1015.5 1015.5 0.0
27/06:00pm 22.7 18.2 8.4 40 7.6 E 22 28 12 15 1015.3 1015.3 0.0
27/05:30pm 23.4 19.3 8.7 39 7.8 E 20 26 11 14 1015.1 1015.1 0.0
27/05:00pm 24.3 19.7 8.3 36 8.5 E 22 28 12 15 1015.2 1015.2 0.0
27/04:30pm 25.2 21.1 7.8 33 9.2 E 19 24 10 13 1015.3 1015.3 0.0
27/04:00pm 25.6 21.5 7.7 32 9.5 E 19 24 10 13 1015.3 1015.3 0.0
27/03:30pm 25.9 21.6 8.0 32 9.6 ENE 20 26 11 14 1015.5 1015.5 0.0
27/03:00pm 25.9 22.0 8.8 34 9.3 E 19 24 10 13 1015.7 1015.7 0.0
27/02:30pm 25.7 21.2 6.8 30 9.9 E 20 26 11 14 1016.1 1016.1 0.0
27/02:00pm 25.6 20.5 7.7 32 9.5 E 24 30 13 16 1016.7 1016.7 0.0
27/01:30pm 25.7 20.4 6.8 30 9.9 E 24 32 13 17 1017.3 1017.3 0.0
27/01:00pm 25.1 19.2 7.3 32 9.4 E 28 32 15 17 1017.8 1017.8 0.0
27/12:30pm 24.6 17.8 7.7 34 8.9 E 33 39 18 21 1018.3 1018.3 0.0
27/12:00pm 24.4 17.1 8.8 37 8.4 ESE 37 46 20 25 1019.0 1019.0 0.0
27/11:30am 23.7 15.9 8.2 37 8.2 ESE 39 50 21 27 1019.5 1019.5 0.0
27/11:00am 23.8 15.4 9.0 39 8.0 ESE 43 52 23 28 1019.9 1019.9 0.0
27/10:30am 23.1 14.2 9.1 41 7.5 ESE 46 54 25 29 1020.1 1020.1 0.0
27/10:00am 22.8 14.3 10.6 46 6.7 ESE 46 54 25 29 1020.1 1020.1 0.0
27/09:30am 22.4 14.2 10.5 47 6.5 ESE 44 54 24 29 1020.1 1020.1 0.0
27/09:00am 21.9 14.3 9.1 44 6.8 SE 39 46 21 25 1020.0 1020.0 0.0
27/08:30am 21.0 14.0 8.6 45 6.5 SE 35 41 19 22 1019.7 1019.7 0.0
27/08:00am 20.4 13.5 9.0 48 6.0 SE 35 43 19 23 1019.5 1019.5 0.0
27/07:30am 19.8 12.3 7.9 46 6.1 SE 37 44 20 24 1019.2 1019.2 0.0
27/07:00am 19.4 11.4 7.5 46 6.1 SE 39 44 21 24 1018.9 1018.9 0.0
27/06:30am 19.2 11.3 7.9 48 5.8 SE 39 48 21 26 1018.3 1018.3 0.0
27/06:00am 19.4 11.1 7.8 47 5.9 SE 41 46 22 25 1017.8 1017.8 0.0
27/05:30am 19.7 11.8 7.8 46 6.1 SE 39 46 21 25 1017.4 1017.4 0.0
27/05:00am 19.8 12.6 7.5 45 6.3 SE 35 43 19 23 1017.2 1017.2 0.0
27/04:30am 20.2 13.2 8.5 47 6.1 SE 35 39 19 21 1017.2 1017.2 0.0
27/04:00am 20.4 14.1 9.6 50 5.8 SE 33 39 18 21 1017.2 1017.2 0.0
27/03:30am 20.7 13.5 9.0 47 6.2 SE 37 43 20 23 1017.1 1017.1 0.0
27/03:00am 20.9 13.0 7.9 43 6.7 SE 39 44 21 24 1017.0 1017.0 0.0
27/02:30am 21.6 13.3 7.8 41 7.2 SE 41 48 22 26 1016.9 1016.9 0.0
27/02:00am 22.2 13.4 7.2 38 7.7 SE 43 52 23 28 1016.8 1016.8 0.0
27/01:30am 22.3 15.0 8.8 42 7.2 SE 37 44 20 24 1017.0 1017.0 0.0
27/01:00am 22.4 16.2 9.2 43 7.1 SE 32 37 17 20 1017.3 1017.3 0.0
27/12:30am 22.5 16.7 7.9 39 7.6 SE 28 35 15 19 1017.6 1017.6 0.0
27/12:00am 23.0 17.0 10.1 44 7.0 SE 32 35 17 19 1017.4 1017.4 0.0
 
Date/Time
CST
Temp
°C
App
Temp
°C
Dew
Point
°C
Rel
Hum
%
Delta-T
°C
Wind Press
QNH
hPa
Press
MSL
hPa
Rain since
9am
mm
Dir  Spd
km/h
Gust
km/h
Spd
kts
Gust
kts
26/11:30pm 23.0 18.9 13.8 56 5.4 SE 28 33 15 18 1017.2 1017.2 0.0
26/11:00pm 22.9 20.4 16.2 66 4.1 SE 24 28 13 15 1017.2 1017.2 0.0
26/10:30pm 23.4 19.9 15.5 61 4.7 ESE 28 33 15 18 1017.1 1017.1 0.0
26/10:00pm 23.3 19.3 15.1 60 4.9 ESE 30 33 16 18 1016.9 1016.9 0.0
26/09:30pm 23.4 19.8 15.2 60 4.9 ESE 28 32 15 17 1016.9 1016.9 0.0
26/09:00pm 22.7 21.0 16.3 67 3.9 E 20 26 11 14 1016.8 1016.8 0.0
26/08:30pm 22.7 20.7 15.0 61 4.6 E 19 24 10 13 1016.6 1016.6 0.0
26/08:00pm 22.9 20.3 13.9 57 5.3 E 20 24 11 13 1016.4 1016.4 0.0
26/07:30pm 23.1 20.3 12.7 52 5.9 ENE 19 26 10 14 1016.1 1016.1 0.0
26/07:00pm 23.3 19.3 11.7 48 6.5 ENE 24 28 13 15 1015.6 1015.6 0.0
26/06:30pm 23.6 19.9 11.6 47 6.8 ENE 22 26 12 14 1015.1 1015.1 0.0
26/06:00pm 24.1 20.3 11.1 44 7.3 E 22 28 12 15 1014.8 1014.8 0.0
26/05:30pm 25.1 21.0 11.6 42 7.7 E 24 32 13 17 1014.6 1014.6 0.0
26/05:00pm 26.1 21.8 10.7 38 8.6 E 24 28 13 15 1014.4 1014.4 0.0
26/04:30pm 26.7 22.9 11.2 38 8.8 E 22 28 12 15 1014.3 1014.3 0.0
26/04:00pm 27.1 23.4 10.3 35 9.4 E 20 26 11 14 1014.2 1014.2 0.0
26/03:30pm 27.9 24.8 8.7 30 10.5 ENE 15 19 8 10 1014.3 1014.3 0.0
26/03:00pm 27.8 24.2 6.6 26 11.2 ENE 15 20 8 11 1014.5 1014.5 0.0
26/02:30pm 27.6 24.6 7.5 28 10.8 E 13 15 7 8 1014.7 1014.7 0.0
26/02:00pm 27.7 23.9 5.9 25 11.4 E 15 19 8 10 1015.1 1015.1 0.0
26/01:30pm 27.3 23.8 7.2 28 10.7 E 15 19 8 10 1015.6 1015.6 0.0
26/01:00pm 27.2 23.2 4.9 24 11.4 ESE 15 19 8 10 1016.1 1016.1 0.0
26/12:30pm 27.5 22.4 3.9 22 11.8 SE 20 24 11 13 1016.5 1016.5 0.0
26/12:00pm 26.7 21.3 6.2 27 10.7 SE 24 30 13 16 1016.9 1016.9 0.0
26/11:30am 26.1 19.8 5.7 27 10.5 SE 28 35 15 19 1017.4 1017.4 0.0
26/11:00am 25.5 18.3 5.1 27 10.3 SSE 32 39 17 21 1017.9 1017.9 0.0
26/10:30am 24.7 17.6 5.5 29 9.7 SE 32 41 17 22 1018.2 1018.2 0.0
26/10:00am 24.0 17.2 7.6 35 8.6 SE 33 41 18 22 1018.4 1018.4 0.0
26/09:30am 22.8 14.9 6.1 34 8.5 SE 37 46 20 25 1018.5 1018.5 0.0
26/09:00am 21.9 13.6 6.2 36 7.9 SE 39 46 21 25 1018.6 1018.6 0.0
26/08:30am 21.2 12.9 5.9 37 7.6 SE 39 46 21 25 1018.5 1018.5 0.0
26/08:00am 20.8 12.5 6.0 38 7.4 SE 39 46 21 25 1018.3 1018.3 0.0
26/07:30am 20.6 11.4 5.4 37 7.5 SE 43 50 23 27 1017.7 1017.7 0.0
26/07:00am 20.4 11.7 6.0 39 7.2 SE 41 48 22 26 1017.4 1017.4 0.0
26/06:30am 20.4 11.4 6.4 40 7.0 SE 43 48 23 26 1017.2 1017.2 0.0
26/06:00am 20.5 12.3 6.5 40 7.0 SE 39 44 21 24 1016.7 1016.7 0.0
26/05:30am 20.7 13.0 7.0 41 7.0 SE 37 43 20 23 1016.5 1016.5 0.0
26/05:00am 20.9 13.2 7.2 41 7.0 SE 37 44 20 24 1016.1 1016.1 0.0
26/04:30am 21.3 13.2 7.2 40 7.2 SE 39 52 21 28 1015.8 1015.8 0.0
26/04:00am 21.6 14.0 9.2 45 6.6 SE 39 48 21 26 1015.6 1015.6 0.0
26/03:30am 21.8 14.1 8.7 43 6.9 SSE 39 44 21 24 1015.4 1015.4 0.0
26/03:00am 22.3 13.5 8.1 40 7.4 SSE 44 54 24 29 1015.3 1015.3 0.0
26/02:30am 22.4 15.4 11.2 49 6.2 SSE 39 48 21 26 1015.2 1015.2 0.0
26/02:00am 23.1 16.0 10.9 46 6.8 SSE 39 50 21 27 1015.1 1015.1 0.0
26/01:30am 23.1 17.1 13.3 54 5.7 SE 37 43 20 23 1015.0 1015.0 0.0
26/01:00am 22.8 19.4 17.7 73 3.2 SE 32 37 17 20 1014.9 1014.9 0.0
26/12:30am 22.9 19.7 18.2 75 2.9 SE 32 35 17 19 1015.0 1015.0 0.0
26/12:00am 23.0 20.6 19.0 78 2.5 SE 30 33 16 18 1014.9 1014.9 0.0
 
Date/Time
CST
Temp
°C
App
Temp
°C
Dew
Point
°C
Rel
Hum
%
Delta-T
°C
Wind Press
QNH
hPa
Press
MSL
hPa
Rain since
9am
mm
Dir  Spd
km/h
Gust
km/h
Spd
kts
Gust
kts
25/11:30pm 23.0 20.8 18.7 77 2.7 SE 28 32 15 17 1015.0 1015.0 0.0
25/11:00pm 23.9 21.4 18.8 73 3.2 ESE 30 33 16 18 1014.7 1014.7 0.0
25/10:30pm 23.9 21.1 18.1 70 3.6 ESE 30 33 16 18 1014.4 1014.4 0.0
25/10:00pm 23.8 21.3 18.0 70 3.6 ESE 28 33 15 18 1014.3 1014.3 0.0
25/09:30pm 23.9 21.7 17.9 69 3.8 ESE 26 30 14 16 1013.9 1013.9 0.0
25/09:00pm 23.9 22.2 18.1 70 3.6 ESE 24 28 13 15 1013.7 1013.7 0.0
25/08:30pm 23.8 22.3 17.8 69 3.7 ESE 22 26 12 14 1013.3 1013.3 0.0
25/08:00pm 23.9 22.5 17.9 69 3.8 E 22 26 12 14 1013.2 1013.2 0.0
25/07:30pm 23.8 22.1 17.3 67 4.0 E 22 26 12 14 1012.9 1012.9 0.0
25/07:00pm 23.8 22.3 16.8 65 4.3 E 20 24 11 13 1012.7 1012.7 0.0
25/06:30pm 23.7 22.4 17.2 67 4.0 E 20 24 11 13 1012.4 1012.4 0.0
25/06:00pm 24.0 22.6 17.0 65 4.3 E 20 24 11 13 1012.2 1012.2 0.0
25/05:30pm 24.4 22.8 16.6 61 4.8 ENE 20 24 11 13 1011.9 1011.9 0.0
25/05:00pm 25.1 23.8 16.8 60 5.1 ENE 19 24 10 13 1011.7 1011.7 0.0
25/04:30pm 25.2 23.6 16.4 58 5.4 E 20 26 11 14 1011.5 1011.5 0.0
25/04:00pm 25.1 23.5 16.5 59 5.3 ENE 20 26 11 14 1011.3 1011.3 0.0
25/03:30pm 24.9 22.5 16.3 59 5.3 ENE 24 30 13 16 1011.4 1011.4 0.0
25/03:00pm 25.2 22.9 16.6 59 5.3 E 24 30 13 16 1011.5 1011.5 0.0
25/02:30pm 26.1 23.6 16.1 54 6.1 E 24 28 13 15 1011.6 1011.6 0.0
25/02:00pm 26.3 24.5 16.0 53 6.3 ENE 20 26 11 14 1012.0 1012.0 0.0
25/01:30pm 26.6 25.0 15.9 51 6.6 ENE 19 24 10 13 1012.5 1012.5 0.0
25/01:00pm 27.5 25.1 16.5 51 6.8 E 24 30 13 16 1012.7 1012.7 0.0
25/12:30pm 27.0 24.2 15.4 49 7.1 E 24 30 13 16 1013.1 1013.1 0.0
25/12:00pm 27.1 23.7 15.8 50 6.9 ESE 28 33 15 18 1013.5 1013.5 0.0
25/11:30am 26.3 22.9 15.7 52 6.5 ESE 28 35 15 19 1013.9 1013.9 0.0
25/11:00am 25.7 21.4 15.4 53 6.2 ESE 32 35 17 19 1014.3 1014.3 0.0
25/10:30am 25.4 21.3 16.0 56 5.7 ESE 32 39 17 21 1014.7 1014.7 0.0
25/10:00am 24.8 20.2 16.0 58 5.4 ESE 35 43 19 23 1014.5 1014.5 0.0
25/09:30am 24.2 19.0 16.5 62 4.7 ESE 39 46 21 25 1014.3 1014.3 0.0
25/09:00am 23.6 18.4 15.6 61 4.8 SE 37 44 20 24 1014.3 1014.3 0.0
25/08:30am 23.2 18.0 15.5 62 4.6 SE 37 46 20 25 1014.1 1014.1 0.0
25/08:00am 22.5 17.3 14.6 61 4.7 SE 35 41 19 22 1013.9 1013.9 0.0
25/07:30am 22.2 16.9 14.3 61 4.6 SE 35 43 19 23 1013.5 1013.5 0.0
25/07:00am 21.9 17.2 14.8 64 4.2 SE 33 41 18 22 1013.4 1013.4 0.0
25/06:30am 22.1 17.0 14.7 63 4.4 SSE 35 46 19 25 1013.1 1013.1 0.0

Other Formats:

Comma delimited format used in spreadsheet applications
http://www.bom.gov.au/fwo/IDD60801/IDD60801.94248.axf

JavaScript Object Notation format (JSON) in row-major order
http://www.bom.gov.au/fwo/IDD60801/IDD60801.94248.json